Amoy Dream — VRHD5 — position and weather

sailwx.info

Track history (hours):
 
Tides and Currents Weather Stations Pressure Air Temp Water Temp Dewpoint Dewpoint Depression Visibility Wind Speed Wind Dir Waves Ship Positions

Amoy Dream

Last reported at 2014-Aug-19 12:28 UTC. Time now 2014-Aug-28 15:24 UTC.
Position N 01°12' E 103°40'.
Warning: this ship's position is 9 days out of date.

Length 190 m; draft 10.1 m.

Type: Cargo ship. MMSI: 477826600.

Date/timePositionNaut miles runAvg speedWind from/ knotsBaromVisibWave heightAir tempDewpointWater temp
2014-Aug-19 12:28N 01°12' E 103°40'7 7.5
2014-Aug-19 11:33N 01°18' E 103°44'1 0.6
2014-Aug-19 10:28N 01°18' E 103°43'0 0.0
2014-Aug-19 09:28N 01°18' E 103°43'0 0.0
2014-Aug-19 08:16N 01°18' E 103°43'0 0.0
2014-Aug-19 07:28N 01°18' E 103°43'0 0.0
2014-Aug-19 06:22N 01°18' E 103°43'0 0.0
2014-Aug-19 05:22N 01°18' E 103°43'0 0.0
2014-Aug-19 04:28N 01°18' E 103°43'0 0.0
2014-Aug-19 03:28N 01°18' E 103°43'0 0.0
2014-Aug-19 02:04N 01°18' E 103°43'0 0.0
2014-Aug-19 01:28N 01°18' E 103°43'0 0.0
2014-Aug-18 20:28N 01°18' E 103°43'0 0.0
2014-Aug-18 08:22N 01°18' E 103°43'0 0.0
2014-Aug-17 12:28N 01°18' E 103°43'  
2014-Aug-14 00:25N 01°18' E 103°43'0 0.0
2014-Aug-12 12:33N 01°18' E 103°43'5 4.8
2014-Aug-12 11:33N 01°15' E 103°47'6 6.2
2014-Aug-12 10:33N 01°14' E 103°53'1 1.2
2014-Aug-12 09:33N 01°15' E 103°53'2 2.1
2014-Aug-12 08:33N 01°14' E 103°56'5 4.8
2014-Aug-12 07:33N 01°15' E 104°00'  
Track history (hours):
 
Tides and Currents Weather Stations Pressure Air Temp Water Temp Dewpoint Dewpoint Depression Visibility Wind Speed Wind Dir Waves Ship Positions

Amoy Dream

Last reported at 2014-Aug-19 12:28 UTC. Time now 2014-Aug-28 15:24 UTC.
Position N 01°12' E 103°40'.
Warning: this ship's position is 9 days out of date.

Length 190 m; draft 10.1 m.

Type: Cargo ship. MMSI: 477826600.

Date/timePositionNaut miles runAvg speedWind from/ knotsBaromVisibWave heightAir tempDewpointWater temp
2014-Aug-19 12:28N 01°12' E 103°40'7 7.5
2014-Aug-19 11:33N 01°18' E 103°44'1 0.6
2014-Aug-19 10:28N 01°18' E 103°43'0 0.0
2014-Aug-19 09:28N 01°18' E 103°43'0 0.0
2014-Aug-19 08:16N 01°18' E 103°43'0 0.0
2014-Aug-19 07:28N 01°18' E 103°43'0 0.0
2014-Aug-19 06:22N 01°18' E 103°43'0 0.0
2014-Aug-19 05:22N 01°18' E 103°43'0 0.0
2014-Aug-19 04:28N 01°18' E 103°43'0 0.0
2014-Aug-19 03:28N 01°18' E 103°43'0 0.0
2014-Aug-19 02:04N 01°18' E 103°43'0 0.0
2014-Aug-19 01:28N 01°18' E 103°43'0 0.0
2014-Aug-18 20:28N 01°18' E 103°43'0 0.0
2014-Aug-18 08:22N 01°18' E 103°43'0 0.0
2014-Aug-17 12:28N 01°18' E 103°43'  
2014-Aug-14 00:25N 01°18' E 103°43'0 0.0
2014-Aug-12 12:33N 01°18' E 103°43'5 4.8
2014-Aug-12 11:33N 01°15' E 103°47'6 6.2
2014-Aug-12 10:33N 01°14' E 103°53'1 1.2
2014-Aug-12 09:33N 01°15' E 103°53'2 2.1
2014-Aug-12 08:33N 01°14' E 103°56'5 4.8
2014-Aug-12 07:33N 01°15' E 104°00'  

Dump ship's entire track history